Stations météo

réclame
Mon MeteoGroup
Desenzano, Italie (16089): Température de l'air & dewpoint: 14.10.2018 19:00:00 - 20.10.2018 19:00:00 (CEST)Desenzano, Italie (16089): Vitesse du vent: 14.10.2018 19:00:00 - 20.10.2018 19:00:00 (CEST)Desenzano, Italie (16089): Direction du vent: 14.10.2018 19:00:00 - 20.10.2018 19:00:00 (CEST)Desenzano, Italie (16089): reduced air pressure: 14.10.2018 19:00:00 - 20.10.2018 19:00:00 (CEST)Desenzano, Italie (16089): Quantités de précipitations: 14.10.2018 19:00:00 - 20.10.2018 19:00:00 (CEST)
Date & Time tt [°C] td [°C] ff [km/h] ff [knt] dd ppp [hPa] rr [mm]
20.10.2018 19:00:00 20,5 15,2 0 0 N 1022,2 -
20.10.2018 18:00:00 23,1 17,9 0 0 N 1021,9 -
20.10.2018 17:00:00 23,7 16,4 0 0 N 1021,8 -
20.10.2018 16:00:00 23,4 16,8 4 2 E 1022,2 -
20.10.2018 15:00:00 23,3 19,0 8 4 NNE 1022,8 -
20.10.2018 14:00:00 23,0 18,7 0 0 N 1023,5 0,0
20.10.2018 13:00:00 22,0 18,9 0 0 N 1024,1 -
20.10.2018 12:00:00 21,2 18,7 2 1 WNW 1024,1 -
20.10.2018 11:00:00 21,1 19,7 8 4 NW 1023,8 -
20.10.2018 10:00:00 19,5 18,5 5 3 NW 1023,4 -
20.10.2018 09:00:00 16,5 16,4 0 0 N 1023,1 -
20.10.2018 08:00:00 16,2 16,1 0 0 N 1022,2 0,0
20.10.2018 07:00:00 15,8 15,4 0 0 N 1021,8 -
20.10.2018 06:00:00 15,5 14,8 0 0 N 1021,6 -
20.10.2018 05:00:00 15,7 14,7 0 0 N 1021,4 -
20.10.2018 04:00:00 16,2 15,5 0 0 N 1021,5 -
20.10.2018 03:00:00 16,5 15,6 0 0 N 1021,7 -
20.10.2018 02:00:00 16,8 15,6 0 0 N 1021,4 0,0
20.10.2018 01:00:00 16,9 15,7 0 0 N 1021,1 -
20.10.2018 00:00:00 17,1 16,2 0 0 N 1020,9 -
19.10.2018 23:00:00 17,3 16,3 0 0 N 1020,7 -
19.10.2018 22:00:00 17,6 15,9 0 0 N 1020,1 -
19.10.2018 21:00:00 18,2 15,8 0 0 N 1019,5 -
19.10.2018 20:00:00 19,4 16,2 0 0 N 1019,2 -
19.10.2018 19:00:00 20,9 17,0 0 0 N 1018,4 -
19.10.2018 18:00:00 22,6 17,9 0 0 N 1017,9 -
19.10.2018 17:00:00 23,5 19,6 5 3 NE 1017,7 -
19.10.2018 16:00:00 23,5 18,1 0 0 N 1017,7 -
19.10.2018 15:00:00 23,6 17,5 0 0 N 1017,8 -
19.10.2018 14:00:00 23,4 16,6 2 1 N 1018,3 0,0
19.10.2018 13:00:00 23,2 17,4 4 2 NW 1018,8 -
19.10.2018 12:00:00 21,5 17,4 5 3 N 1018,9 -
19.10.2018 11:00:00 20,9 16,2 21 11 NNW 1018,9 -
19.10.2018 10:00:00 20,4 16,8 24 13 N 1018,8 -
19.10.2018 09:00:00 19,7 16,5 28 15 NNW 1018,1 -
19.10.2018 08:00:00 19,5 16,5 15 8 NW 1017,7 0,0
19.10.2018 07:00:00 19,8 16,4 9 5 NW 1017,7 -
19.10.2018 06:00:00 19,8 16,2 9 5 WNW 1017,6 -
19.10.2018 05:00:00 19,6 15,8 2 1 NW 1017,6 -
19.10.2018 04:00:00 20,2 16,6 11 6 WNW 1017,5 -
19.10.2018 03:00:00 20,4 16,8 5 3 WNW 1017,6 -
19.10.2018 02:00:00 20,6 17,9 11 6 NW 1017,8 0,0
19.10.2018 01:00:00 20,5 18,6 8 4 NW 1017,6 -
19.10.2018 00:00:00 19,3 18,3 5 3 NW 1017,2 -
18.10.2018 23:00:00 17,7 16,5 0 0 N 1016,8 -
18.10.2018 22:00:00 17,8 16,2 0 0 N 1016,5 -
18.10.2018 21:00:00 18,8 16,9 0 0 N 1016,1 -
18.10.2018 20:00:00 19,7 17,4 0 0 N 1015,9 0,0
18.10.2018 19:00:00 21,1 17,8 0 0 N 1015,4 -
18.10.2018 18:00:00 22,9 19,6 0 0 N 1015,1 -
18.10.2018 17:00:00 23,7 19,4 0 0 N 1015,1 -
18.10.2018 16:00:00 23,6 18,2 4 2 ENE 1015,2 -
18.10.2018 15:00:00 23,6 17,3 0 0 N 1015,4 -
18.10.2018 14:00:00 22,9 17,9 8 4 NW 1015,9 0,0
18.10.2018 13:00:00 22,2 16,6 13 7 NW 1016,6 -
18.10.2018 12:00:00 21,1 16,2 11 6 NW 1017,1 -
18.10.2018 11:00:00 20,4 17,0 21 11 NNW 1017,4 -
18.10.2018 10:00:00 20,0 16,6 15 8 NNW 1017,4 -
18.10.2018 09:00:00 19,7 16,1 11 6 NW 1017,3 -
18.10.2018 08:00:00 19,6 16,2 9 5 NW 1016,8 0,0
18.10.2018 07:00:00 19,7 16,7 11 6 NW 1016,8 -
18.10.2018 06:00:00 19,6 17,1 11 6 NW 1016,9 -
18.10.2018 05:00:00 19,1 18,1 9 5 NW 1017,0 -
18.10.2018 04:00:00 16,6 15,2 0 0 N 1017,5 -
18.10.2018 03:00:00 16,9 15,5 0 0 N 1018,0 -
18.10.2018 02:00:00 16,8 15,4 0 0 N 1018,1 0,0
18.10.2018 01:00:00 17,1 15,9 0 0 N 1018,4 -
18.10.2018 00:00:00 16,9 15,2 0 0 N 1018,9 -
17.10.2018 23:00:00 16,8 13,6 0 0 N 1019,0 -
17.10.2018 22:00:00 18,1 13,9 0 0 N 1019,0 -
17.10.2018 21:00:00 18,8 14,4 0 0 N 1018,4 -
17.10.2018 20:00:00 19,9 15,7 0 0 N 1018,3 0,0
17.10.2018 19:00:00 20,5 15,4 0 0 N 1018,1 -
17.10.2018 18:00:00 21,3 15,5 0 0 N 1017,7 -
17.10.2018 17:00:00 22,0 15,5 0 0 N 1017,8 -
17.10.2018 16:00:00 21,8 15,6 2 1 NNW 1018,1 -
17.10.2018 15:00:00 21,5 15,7 4 2 N 1018,4 -
17.10.2018 14:00:00 21,3 16,6 11 6 NNW 1018,9 0,0
17.10.2018 13:00:00 20,6 15,3 18 10 NW 1019,4 -
17.10.2018 12:00:00 20,6 15,3 4 2 N 1020,0 -
17.10.2018 11:00:00 20,3 15,2 8 4 N 1019,9 -
17.10.2018 10:00:00 20,3 15,2 8 4 N 1020,0 -
17.10.2018 09:00:00 20,2 15,5 13 7 NNW 1019,8 -
17.10.2018 08:00:00 20,3 15,9 24 13 NNW 1019,6 0,0
17.10.2018 07:00:00 20,2 16,2 13 7 N 1019,4 -
17.10.2018 06:00:00 20,2 15,3 16 9 N 1019,3 -
17.10.2018 05:00:00 19,9 15,5 16 9 NW 1019,4 -
17.10.2018 04:00:00 20,2 16,8 21 11 NNW 1019,9 -
17.10.2018 03:00:00 20,1 16,5 8 4 NW 1020,4 -
17.10.2018 02:00:00 20,2 16,8 9 5 NW 1020,5 0,0
17.10.2018 01:00:00 19,7 16,5 8 4 NW 1020,7 -
17.10.2018 00:00:00 19,1 16,1 0 0 N 1020,9 -
16.10.2018 23:00:00 19,0 16,4 0 0 N 1021,2 -
16.10.2018 22:00:00 18,8 15,6 2 1 SSW 1021,2 -
16.10.2018 21:00:00 19,2 15,6 0 0 N 1021,0 -
16.10.2018 20:00:00 19,7 15,9 0 0 N 1020,9 0,0
16.10.2018 19:00:00 20,7 15,6 0 0 N 1020,7 -
16.10.2018 18:00:00 22,2 16,8 2 1 N 1020,3 -
16.10.2018 17:00:00 22,2 17,5 0 0 N 1020,3 -
16.10.2018 16:00:00 22,6 16,8 0 0 N 1020,4 -
16.10.2018 15:00:00 22,3 15,8 2 1 NW 1020,2 -
16.10.2018 14:00:00 22,2 15,9 4 2 NNW 1020,6 0,0
16.10.2018 13:00:00 21,7 16,4 4 2 WNW 1020,9 -
16.10.2018 12:00:00 20,6 15,9 11 6 NNW 1021,1 -
16.10.2018 11:00:00 19,9 15,9 21 11 N 1021,0 -
16.10.2018 10:00:00 19,4 15,6 13 7 NW 1021,0 -
16.10.2018 09:00:00 19,1 15,5 11 6 NW 1020,8 -
16.10.2018 08:00:00 18,9 14,9 9 5 NW 1020,3 0,0
16.10.2018 07:00:00 18,9 15,3 9 5 NW 1020,1 -
16.10.2018 06:00:00 18,8 16,3 13 7 NW 1020,0 -
16.10.2018 05:00:00 18,5 16,8 11 6 NW 1019,8 -
16.10.2018 04:00:00 16,0 15,6 8 4 WNW 1020,1 -
16.10.2018 03:00:00 14,8 12,6 0 0 N 1020,6 -
16.10.2018 02:00:00 15,6 13,2 0 0 N 1020,6 0,0
16.10.2018 01:00:00 15,5 12,4 0 0 N 1020,6 -
16.10.2018 00:00:00 16,5 12,4 0 0 N 1020,6 -
15.10.2018 23:00:00 18,1 13,1 0 0 N 1020,6 -
15.10.2018 22:00:00 18,8 13,8 2 1 SSE 1020,2 -
15.10.2018 21:00:00 19,1 13,0 2 1 SSE 1020,1 -
15.10.2018 20:00:00 20,4 13,5 0 0 N 1019,8 0,0
15.10.2018 19:00:00 21,7 14,3 2 1 E 1019,3 -
15.10.2018 18:00:00 22,8 14,5 4 2 SSE 1018,6 -
15.10.2018 17:00:00 23,7 14,6 11 6 E 1018,1 -
15.10.2018 16:00:00 24,1 14,1 15 8 ENE 1017,9 -
15.10.2018 15:00:00 24,2 14,8 11 6 E 1018,1 -
15.10.2018 14:00:00 22,9 17,3 4 2 WNW 1018,6 0,0
15.10.2018 13:00:00 22,3 17,6 4 2 NNW 1019,0 -
15.10.2018 12:00:00 21,0 17,3 4 2 NNW 1019,2 -
15.10.2018 11:00:00 19,9 17,6 2 1 WNW 1019,2 -
15.10.2018 10:00:00 18,4 17,5 0 0 N 1019,1 -
15.10.2018 09:00:00 15,8 15,7 0 0 N 1018,9 -
15.10.2018 08:00:00 14,4 13,6 4 2 SSW 1018,5 0,0
15.10.2018 07:00:00 14,6 13,4 4 2 S 1018,4 -
15.10.2018 06:00:00 14,9 13,2 2 1 SSW 1018,4 -
15.10.2018 05:00:00 15,7 14,0 0 0 N 1018,5 -
15.10.2018 04:00:00 16,1 14,2 0 0 N 1018,5 -
15.10.2018 03:00:00 16,4 14,5 0 0 N 1018,7 -
15.10.2018 02:00:00 16,9 14,7 0 0 N 1018,9 0,0
15.10.2018 01:00:00 17,3 14,5 0 0 N 1019,1 -
15.10.2018 00:00:00 17,9 13,5 0 0 N 1019,1 -
14.10.2018 23:00:00 20,2 14,9 4 2 E 1018,9 -
14.10.2018 22:00:00 21,3 15,5 4 2 ENE 1019,0 -
14.10.2018 21:00:00 20,8 14,8 0 0 N 1018,7 -
14.10.2018 20:00:00 20,7 16,0 0 0 N 1018,6 0,0
14.10.2018 19:00:00 21,8 16,5 0 0 N 1018,2 -

tt = Température de l'air
td = dewpoint
ff = Vitesse du vent
dd = Direction du vent
ppp = reduced air pressure
rr = Quantités de précipitations

stations d'obs. à proximité